Time;durP1;ratioP1;P1;durP2;ratioP2;P2;SDS_P1;SDS_P2;PMS_P1;PMS_P2;Temp;Humidity;BMP_temperature;BMP_pressure;BME280_temperature;BME280_humidity;BME280_pressure;Samples;Min_cycle;Max_cycle;Signal;HPM_P1;HPM_P2
2022/01/02 00:02:02;;;;;;;;;39.00;37.60;;;;;;;;5290705;28;8779;-64
2022/01/02 00:04:55;;;;;;;;;51.20;47.40;;;;;;;;5289932;28;8811;-63
2022/01/02 00:07:48;;;;;;;;;48.60;44.20;;;;;;;;5275358;28;8778;-64
2022/01/02 00:10:57;;;;;;;;;60.00;49.80;;;;;;;;5289521;28;8861;-65
2022/01/02 00:13:47;;;;;;;;;60.00;50.80;;;;;;;;5290071;28;8791;-65
2022/01/02 00:16:38;;;;;;;;;51.20;43.60;;;;;;;;5274323;28;8805;-64
2022/01/02 00:19:30;;;;;;;;;46.80;44.20;;;;;;;;5274805;28;8799;-64
2022/01/02 00:22:25;;;;;;;;;52.40;46.40;;;;;;;;5274326;28;8793;-64
2022/01/02 00:25:27;;;;;;;;;55.40;48.20;;;;;;;;5274717;28;8883;-64
2022/01/02 00:28:17;;;;;;;;;50.80;45.60;;;;;;;;5289671;28;8782;-64
2022/01/02 00:31:07;;;;;;;;;49.40;44.60;;;;;;;;5289635;28;8802;-64
2022/01/02 00:33:57;;;;;;;;;40.20;37.80;;;;;;;;5274641;28;8793;-64
2022/01/02 00:36:47;;;;;;;;;41.60;39.80;;;;;;;;5259616;28;8767;-64
2022/01/02 00:39:55;;;;;;;;;51.00;44.40;;;;;;;;5288811;28;9522;-64
2022/01/02 00:43:04;;;;;;;;;31.00;23.00;;;;;;;;5289399;28;8791;-64
2022/01/02 00:45:55;;;;;;;;;46.60;43.40;;;;;;;;5273726;28;8831;-64
2022/01/02 00:48:47;;;;;;;;;47.00;45.00;;;;;;;;5273912;28;8795;-64
2022/01/02 00:51:46;;;;;;;;;39.20;33.40;;;;;;;;5273749;28;8783;-64
2022/01/02 00:54:38;;;;;;;;;54.20;44.00;;;;;;;;5259174;28;8833;-64
2022/01/02 00:57:36;;;;;;;;;42.60;39.40;;;;;;;;5273567;28;8771;-63
2022/01/02 01:00:26;;;;;;;;;25.40;25.00;;;;;;;;5273568;28;8759;-63
2022/01/02 01:03:35;;;;;;;;;25.40;25.40;;;;;;;;5288489;28;8802;-63
2022/01/02 01:06:29;;;;;;;;;25.80;22.40;;;;;;;;5273329;28;8889;-64
2022/01/02 01:09:20;;;;;;;;;28.80;27.40;;;;;;;;5288684;28;8797;-64
2022/01/02 01:12:10;;;;;;;;;23.00;20.00;;;;;;;;5288974;28;8795;-62
2022/01/02 01:15:20;;;;;;;;;21.00;19.80;;;;;;;;5276253;28;8780;-64
2022/01/02 01:18:10;;;;;;;;;23.80;20.80;;;;;;;;5273341;28;8771;-64
2022/01/02 01:21:00;;;;;;;;;30.80;29.20;;;;;;;;5288912;28;8833;-64
2022/01/02 01:23:49;;;;;;;;;31.00;27.60;;;;;;;;5288342;28;8776;-64
2022/01/02 01:26:40;;;;;;;;;36.20;34.20;;;;;;;;5273180;28;8844;-64
2022/01/02 01:29:34;;;;;;;;;30.80;28.00;;;;;;;;5258946;28;8778;-64
2022/01/02 01:32:26;;;;;;;;;33.00;30.20;;;;;;;;5272993;28;9494;-64
2022/01/02 01:35:15;;;;;;;;;35.40;33.40;;;;;;;;5287966;28;8802;-64
2022/01/02 01:38:07;;;;;;;;;36.00;31.20;;;;;;;;5273022;28;8909;-64
2022/01/02 01:41:08;;;;;;;;;37.20;35.60;;;;;;;;5273191;28;8852;-64
2022/01/02 01:47:15;;;;;;;;;25.80;25.00;;;;;;;;5277633;28;8821;-64
2022/01/02 01:50:05;;;;;;;;;25.40;25.40;;;;;;;;5258489;28;8794;-63
2022/01/02 01:52:55;;;;;;;;;23.60;23.20;;;;;;;;5291138;28;9521;-63
2022/01/02 01:55:46;;;;;;;;;28.80;28.00;;;;;;;;5292704;28;8846;-64
2022/01/02 01:58:36;;;;;;;;;29.20;27.20;;;;;;;;5277033;28;8802;-63
2022/01/02 02:01:26;;;;;;;;;31.60;30.60;;;;;;;;5292441;28;8775;-63
2022/01/02 02:04:18;;;;;;;;;26.60;26.60;;;;;;;;5277075;28;9002;-63
2022/01/02 02:07:09;;;;;;;;;30.20;30.20;;;;;;;;5276972;28;9484;-63
2022/01/02 02:10:16;;;;;;;;;26.40;25.20;;;;;;;;5277082;28;8793;-64
2022/01/02 02:13:25;;;;;;;;;23.80;22.00;;;;;;;;5291966;28;8763;-63
2022/01/02 02:16:17;;;;;;;;;25.60;25.60;;;;;;;;5276794;28;8803;-63
2022/01/02 02:19:06;;;;;;;;;24.60;24.20;;;;;;;;5292124;28;8759;-63
2022/01/02 02:21:55;;;;;;;;;23.60;22.20;;;;;;;;5262824;28;8778;-62
2022/01/02 02:24:45;;;;;;;;;23.80;23.80;;;;;;;;5291924;28;9585;-64
2022/01/02 02:27:34;;;;;;;;;28.80;28.80;;;;;;;;5292584;28;8775;-65
2022/01/02 02:30:25;;;;;;;;;22.40;22.40;;;;;;;;5291942;28;8759;-63
2022/01/02 02:33:16;;;;;;;;;21.20;21.20;;;;;;;;5262239;28;8779;-62
2022/01/02 02:36:08;;;;;;;;;23.20;21.80;;;;;;;;5262960;28;8802;-62
2022/01/02 02:38:58;;;;;;;;;36.60;34.40;;;;;;;;5277047;28;8779;-63
2022/01/02 02:41:47;;;;;;;;;8.80;8.00;;;;;;;;5276457;28;8787;-64
2022/01/02 02:44:39;;;;;;;;;31.00;28.80;;;;;;;;5291448;28;8861;-61
2022/01/02 02:50:44;;;;;;;;;29.60;28.20;;;;;;;;5275716;28;8897;-62
2022/01/02 02:53:37;;;;;;;;;30.20;30.20;;;;;;;;5275565;28;8783;-63
2022/01/02 02:56:40;;;;;;;;;48.60;42.80;;;;;;;;5274807;28;8830;-62
2022/01/02 02:59:32;;;;;;;;;34.00;33.40;;;;;;;;5260457;28;8779;-63
2022/01/02 03:02:21;;;;;;;;;44.80;42.20;;;;;;;;5273954;28;9494;-64
2022/01/02 03:05:11;;;;;;;;;41.80;40.60;;;;;;;;5275007;28;8827;-63
2022/01/02 03:08:01;;;;;;;;;36.60;34.60;;;;;;;;5290511;28;8795;-63
2022/01/02 03:10:51;;;;;;;;;30.40;28.60;;;;;;;;5274639;28;8790;-63
2022/01/02 03:13:42;;;;;;;;;18.20;18.20;;;;;;;;5274996;28;8798;-62
2022/01/02 03:16:31;;;;;;;;;22.20;21.60;;;;;;;;5290064;28;8786;-62
2022/01/02 03:19:21;;;;;;;;;36.00;33.40;;;;;;;;5274652;28;8760;-64
2022/01/02 03:22:13;;;;;;;;;38.20;36.20;;;;;;;;5274900;28;9512;-63
2022/01/02 03:25:03;;;;;;;;;32.80;32.00;;;;;;;;5274371;28;8794;-64
2022/01/02 03:27:52;;;;;;;;;34.20;27.40;;;;;;;;5289767;28;8779;-63
2022/01/02 03:30:42;;;;;;;;;23.00;22.80;;;;;;;;5289563;28;8755;-64
2022/01/02 03:33:50;;;;;;;;;23.20;22.00;;;;;;;;5289785;28;8806;-64
2022/01/02 03:36:40;;;;;;;;;33.00;31.00;;;;;;;;5274294;28;8775;-63
2022/01/02 03:39:29;;;;;;;;;25.60;24.80;;;;;;;;5273941;28;8847;-63
2022/01/02 03:42:19;;;;;;;;;32.80;30.80;;;;;;;;5289619;28;8798;-65
2022/01/02 03:45:09;;;;;;;;;36.60;36.20;;;;;;;;5273940;28;8810;-65
2022/01/02 03:47:59;;;;;;;;;22.00;20.00;;;;;;;;5273969;28;8820;-64
2022/01/02 03:50:48;;;;;;;;;40.80;39.00;;;;;;;;5273769;28;8830;-65
2022/01/02 03:53:40;;;;;;;;;41.20;37.80;;;;;;;;5289704;28;8767;-65
2022/01/02 03:56:31;;;;;;;;;33.50;31.50;;;;;;;;5221605;28;1494526;-64
2022/01/02 03:59:21;;;;;;;;;28.80;28.60;;;;;;;;5274974;28;8771;-64
2022/01/02 04:02:10;;;;;;;;;35.80;34.20;;;;;;;;5275250;28;9435;-65
2022/01/02 04:05:00;;;;;;;;;21.60;20.40;;;;;;;;5290008;28;8799;-65
2022/01/02 04:07:50;;;;;;;;;23.20;21.60;;;;;;;;5289831;28;8783;-65
2022/01/02 04:10:40;;;;;;;;;15.40;14.40;;;;;;;;5290251;28;8763;-65
2022/01/02 04:13:30;;;;;;;;;28.80;26.20;;;;;;;;5289858;28;8755;-64
2022/01/02 04:16:20;;;;;;;;;23.60;23.60;;;;;;;;5273546;28;8885;-64
2022/01/02 04:19:10;;;;;;;;;24.20;22.20;;;;;;;;5274870;28;9454;-65
2022/01/02 04:21:59;;;;;;;;;40.40;39.20;;;;;;;;5274776;28;8802;-64
2022/01/02 04:24:49;;;;;;;;;43.60;40.40;;;;;;;;5289510;28;8901;-63
2022/01/02 04:27:39;;;;;;;;;42.00;39.80;;;;;;;;5289759;28;8779;-63
2022/01/02 04:30:28;;;;;;;;;55.00;49.20;;;;;;;;5259847;28;8824;-63
2022/01/02 04:33:18;;;;;;;;;71.80;56.60;;;;;;;;5274008;28;8783;-63
2022/01/02 04:36:08;;;;;;;;;92.60;70.80;;;;;;;;5273968;28;8775;-65
2022/01/02 04:38:58;;;;;;;;;81.60;63.60;;;;;;;;5289285;28;8760;-63
2022/01/02 04:41:48;;;;;;;;;91.00;72.00;;;;;;;;5274030;28;9360;-64
2022/01/02 04:44:38;;;;;;;;;64.20;52.80;;;;;;;;5273561;28;8865;-63
2022/01/02 04:47:29;;;;;;;;;76.00;60.00;;;;;;;;5274005;28;8966;-65
2022/01/02 04:50:19;;;;;;;;;84.00;65.60;;;;;;;;5259542;28;8795;-65
2022/01/02 04:53:10;;;;;;;;;79.60;64.20;;;;;;;;5289539;28;9534;-64
2022/01/02 04:56:00;;;;;;;;;72.20;58.00;;;;;;;;5273487;28;8837;-65
2022/01/02 04:58:50;;;;;;;;;66.80;54.00;;;;;;;;5273540;28;8787;-65
2022/01/02 05:01:40;;;;;;;;;105.00;74.25;;;;;;;;5273189;28;8780;-66
2022/01/02 05:04:30;;;;;;;;;110.60;77.00;;;;;;;;5289242;28;8803;-66
2022/01/02 05:07:20;;;;;;;;;79.00;57.60;;;;;;;;5273458;28;8775;-66
2022/01/02 05:10:10;;;;;;;;;59.40;49.40;;;;;;;;5273813;28;8862;-67
2022/01/02 05:13:18;;;;;;;;;52.20;45.40;;;;;;;;5288832;28;8795;-66
2022/01/02 05:16:09;;;;;;;;;59.80;52.00;;;;;;;;5273230;28;8798;-65
2022/01/02 05:19:17;;;;;;;;;63.80;51.80;;;;;;;;5289191;28;8809;-70
2022/01/02 05:22:06;;;;;;;;;49.80;47.00;;;;;;;;5273824;28;8788;-65
2022/01/02 05:24:56;;;;;;;;;59.40;49.00;;;;;;;;5288664;28;8802;-64
2022/01/02 05:27:46;;;;;;;;;55.40;49.00;;;;;;;;5288357;28;8762;-63
2022/01/02 05:30:37;;;;;;;;;31.00;29.60;;;;;;;;5272998;28;8775;-64
2022/01/02 05:33:26;;;;;;;;;32.20;32.20;;;;;;;;5273069;28;8771;-67
2022/01/02 05:36:17;;;;;;;;;42.20;41.80;;;;;;;;5273031;28;8787;-68
2022/01/02 05:39:07;;;;;;;;;25.80;24.80;;;;;;;;5273514;28;8790;-72
2022/01/02 05:41:57;;;;;;;;;41.60;36.40;;;;;;;;5272901;28;8800;-72
2022/01/02 05:53:31;;;;;;;;;61.20;52.20;;;;;;;;5288024;28;8728;-72
2022/01/02 05:56:21;;;;;;;;;30.00;30.00;;;;;;;;5272593;28;8803;-73
2022/01/02 05:59:11;;;;;;;;;43.20;35.80;;;;;;;;5273776;28;8775;-72
2022/01/02 06:02:01;;;;;;;;;31.80;30.80;;;;;;;;5272918;28;8779;-72
2022/01/02 06:04:50;;;;;;;;;31.00;27.60;;;;;;;;5273213;28;8802;-74
2022/01/02 06:16:20;;;;;;;;;24.80;24.60;;;;;;;;5287883;28;9389;-75
2022/01/02 06:19:10;;;;;;;;;32.60;31.40;;;;;;;;5258262;28;8767;-74
2022/01/02 06:22:00;;;;;;;;;43.00;39.20;;;;;;;;5287816;28;8779;-73
2022/01/02 06:24:52;;;;;;;;;31.80;28.00;;;;;;;;5258818;28;8827;-71
2022/01/02 06:27:42;;;;;;;;;32.40;31.80;;;;;;;;5272590;28;8775;-72
2022/01/02 06:30:32;;;;;;;;;16.00;15.00;;;;;;;;5272675;28;8775;-71
2022/01/02 06:33:22;;;;;;;;;29.60;29.60;;;;;;;;5258413;28;8760;-72
2022/01/02 06:36:11;;;;;;;;;39.40;36.40;;;;;;;;5258292;28;8775;-74
2022/01/02 06:39:01;;;;;;;;;21.80;21.80;;;;;;;;5261088;28;8775;-74
2022/01/02 06:41:51;;;;;;;;;23.60;18.80;;;;;;;;5291510;28;8763;-73
2022/01/02 06:44:42;;;;;;;;;19.40;19.00;;;;;;;;5276123;28;9618;-73
2022/01/02 06:47:31;;;;;;;;;24.20;23.80;;;;;;;;5291413;28;8865;-73
2022/01/02 06:50:20;;;;;;;;;34.20;33.00;;;;;;;;5276154;28;8795;-74
2022/01/02 06:53:11;;;;;;;;;14.40;14.40;;;;;;;;5275876;28;8813;-74
2022/01/02 06:56:01;;;;;;;;;44.80;42.80;;;;;;;;5275999;28;8831;-75
2022/01/02 06:58:50;;;;;;;;;10.40;9.20;;;;;;;;5291362;28;8770;-74
2022/01/02 07:01:41;;;;;;;;;18.00;16.00;;;;;;;;5262367;28;8795;-74
2022/01/02 07:04:31;;;;;;;;;27.80;25.80;;;;;;;;5262081;28;8822;-73
2022/01/02 07:07:21;;;;;;;;;23.80;23.80;;;;;;;;5291226;28;8854;-74
2022/01/02 07:10:13;;;;;;;;;32.00;31.80;;;;;;;;5261688;28;9581;-73
2022/01/02 07:13:02;;;;;;;;;22.00;22.00;;;;;;;;5276187;28;8802;-72
2022/01/02 07:15:52;;;;;;;;;18.80;18.80;;;;;;;;5292163;28;8801;-76
2022/01/02 07:18:41;;;;;;;;;23.20;21.20;;;;;;;;5275716;28;8775;-77
2022/01/02 07:21:31;;;;;;;;;21.20;20.00;;;;;;;;5275839;28;8795;-74
2022/01/02 07:24:20;;;;;;;;;17.40;16.40;;;;;;;;5290635;28;8813;-75
2022/01/02 07:27:10;;;;;;;;;16.00;15.00;;;;;;;;5261710;28;8779;-75
2022/01/02 07:29:59;;;;;;;;;19.00;18.00;;;;;;;;5290699;28;9547;-71
2022/01/02 07:32:49;;;;;;;;;30.20;26.40;;;;;;;;5290555;28;8790;-72
2022/01/02 07:35:39;;;;;;;;;17.20;17.20;;;;;;;;5261240;28;8807;-72
2022/01/02 07:38:28;;;;;;;;;59.80;49.00;;;;;;;;5291014;28;8802;-73
2022/01/02 07:41:17;;;;;;;;;15.40;15.40;;;;;;;;5260823;28;8880;-75
2022/01/02 07:44:08;;;;;;;;;14.40;12.00;;;;;;;;5275088;28;8811;-74
2022/01/02 07:46:57;;;;;;;;;6.60;6.00;;;;;;;;5290501;28;8783;-77
2022/01/02 07:49:47;;;;;;;;;20.60;20.00;;;;;;;;5259626;28;8901;-76
2022/01/02 07:52:37;;;;;;;;;16.40;16.40;;;;;;;;5290507;28;8768;-77
2022/01/02 07:55:26;;;;;;;;;13.60;12.40;;;;;;;;5260434;28;8908;-73
2022/01/02 07:58:16;;;;;;;;;17.20;17.20;;;;;;;;5274465;28;8774;-72
2022/01/02 08:01:06;;;;;;;;;9.80;9.80;;;;;;;;5274414;28;8775;-73
2022/01/02 08:03:55;;;;;;;;;12.80;11.40;;;;;;;;5260383;28;9396;-73
2022/01/02 08:06:45;;;;;;;;;36.40;35.00;;;;;;;;5274370;28;8770;-73
2022/01/02 08:09:35;;;;;;;;;104.50;75.00;;;;;;;;5274364;28;8787;-74
2022/01/02 08:12:24;;;;;;;;;61.75;33.50;;;;;;;;5274496;28;8865;-73
2022/01/02 08:15:14;;;;;;;;;84.50;67.75;;;;;;;;5274677;28;9570;-72
2022/01/02 08:18:04;;;;;;;;;98.50;77.25;;;;;;;;5289803;28;8840;-72
2022/01/02 08:20:55;;;;;;;;;36.80;33.60;;;;;;;;5275369;28;8799;-73
2022/01/02 08:23:45;;;;;;;;;29.20;29.20;;;;;;;;5274116;28;8790;-73
2022/01/02 08:26:34;;;;;;;;;18.40;18.40;;;;;;;;5274774;28;9473;-73
2022/01/02 08:29:23;;;;;;;;;29.60;27.20;;;;;;;;5274276;28;8783;-73
2022/01/02 08:32:13;;;;;;;;;18.40;14.60;;;;;;;;5274030;28;8786;-72
2022/01/02 08:35:21;;;;;;;;;14.40;13.60;;;;;;;;5289737;28;8759;-73
2022/01/02 08:38:11;;;;;;;;;10.00;10.00;;;;;;;;5259549;28;8782;-74
2022/01/02 08:41:01;;;;;;;;;29.80;29.20;;;;;;;;5289739;28;8764;-72
2022/01/02 08:43:50;;;;;;;;;25.20;24.20;;;;;;;;5273863;28;8783;-73
2022/01/02 08:46:40;;;;;;;;;46.40;43.00;;;;;;;;5289592;28;8914;-72
2022/01/02 08:49:29;;;;;;;;;15.00;13.40;;;;;;;;5273218;28;8806;-73
2022/01/02 08:52:19;;;;;;;;;25.20;25.20;;;;;;;;5289100;28;8807;-73
2022/01/02 08:55:08;;;;;;;;;30.60;29.20;;;;;;;;5273790;28;8854;-72
2022/01/02 08:57:58;;;;;;;;;27.00;25.80;;;;;;;;5273733;28;8898;-73
2022/01/02 09:00:48;;;;;;;;;19.00;19.00;;;;;;;;5273581;28;8904;-72
2022/01/02 09:03:55;;;;;;;;;30.60;29.20;;;;;;;;5288566;28;8793;-72
2022/01/02 09:06:45;;;;;;;;;24.80;21.60;;;;;;;;5273649;28;8813;-72
2022/01/02 09:09:53;;;;;;;;;51.20;42.20;;;;;;;;5276288;28;8795;-73
2022/01/02 09:12:43;;;;;;;;;47.40;43.80;;;;;;;;5273467;28;8814;-73
2022/01/02 09:15:33;;;;;;;;;37.00;36.00;;;;;;;;5273071;28;8795;-72
2022/01/02 09:18:23;;;;;;;;;23.40;22.40;;;;;;;;5288738;28;8796;-72
2022/01/02 09:21:13;;;;;;;;;16.80;16.40;;;;;;;;5274107;28;8815;-73
2022/01/02 09:24:22;;;;;;;;;29.20;26.60;;;;;;;;5288673;28;8822;-72
2022/01/02 09:27:11;;;;;;;;;28.20;20.60;;;;;;;;5288703;28;9552;-72
2022/01/02 09:30:02;;;;;;;;;33.40;31.80;;;;;;;;5272847;28;8791;-73
2022/01/02 09:32:53;;;;;;;;;34.80;32.60;;;;;;;;5273592;28;8786;-73
2022/01/02 09:36:01;;;;;;;;;31.20;29.40;;;;;;;;5288575;28;8794;-74
2022/01/02 09:38:51;;;;;;;;;21.60;19.00;;;;;;;;5288540;28;8779;-73
2022/01/02 09:41:40;;;;;;;;;21.80;21.80;;;;;;;;5272644;28;8783;-73
2022/01/02 09:44:31;;;;;;;;;25.80;24.80;;;;;;;;5288345;28;8819;-73
2022/01/02 09:47:21;;;;;;;;;26.20;24.60;;;;;;;;5289123;28;8767;-73
2022/01/02 09:50:10;;;;;;;;;32.00;30.60;;;;;;;;5258548;28;8773;-73
2022/01/02 09:53:00;;;;;;;;;27.40;25.80;;;;;;;;5259067;28;9490;-72
2022/01/02 09:55:31;;;;;;;;;15.00;14.80;;;;;;;;5269899;28;8811;-72
2022/01/02 09:58:04;;;;;;;;;18.75;18.75;;;;;;;;5236508;28;8911;-73
2022/01/02 10:00:35;;;;;;;;;23.00;22.80;;;;;;;;5236281;28;8868;-73
2022/01/02 10:03:07;;;;;;;;;27.00;26.50;;;;;;;;5289168;28;8772;-72
2022/01/02 10:06:01;;;;;;;;;21.80;20.00;;;;;;;;5235831;28;9012;-73
2022/01/02 10:08:35;;;;;;;;;42.00;40.60;;;;;;;;5253510;28;9479;-72
2022/01/02 10:11:11;;;;;;;;;45.40;35.80;;;;;;;;5269602;28;8911;-74
2022/01/02 10:13:56;;;;;;;;;29.60;25.60;;;;;;;;5255393;28;8769;-73
2022/01/02 10:16:34;;;;;;;;;46.60;44.40;;;;;;;;5257644;28;8878;-73
2022/01/02 10:19:18;;;;;;;;;50.60;47.40;;;;;;;;5257288;28;8883;-73
2022/01/02 10:21:56;;;;;;;;;44.80;41.80;;;;;;;;5257752;28;8812;-73
2022/01/02 10:24:36;;;;;;;;;28.00;27.20;;;;;;;;5240528;28;8927;-72
2022/01/02 10:27:15;;;;;;;;;14.20;14.00;;;;;;;;5240129;28;8769;-73
2022/01/02 10:29:56;;;;;;;;;31.40;29.60;;;;;;;;5257550;28;8891;-73
2022/01/02 10:32:32;;;;;;;;;27.60;27.60;;;;;;;;5240640;28;9515;-73
2022/01/02 10:35:22;;;;;;;;;24.60;24.60;;;;;;;;5259978;28;8960;-74
2022/01/02 10:37:53;;;;;;;;;50.80;44.80;;;;;;;;5273864;28;9516;-73
2022/01/02 10:40:24;;;;;;;;;54.20;48.80;;;;;;;;5256901;28;8755;-73
2022/01/02 10:42:55;;;;;;;;;47.00;45.00;;;;;;;;5257066;28;9463;-71
2022/01/02 10:49:54;;;;;;;;;69.20;55.40;;;;;;;;5291273;28;8741;-72
2022/01/02 10:52:27;;;;;;;;;49.40;43.40;;;;;;;;5273104;28;8799;-73
2022/01/02 10:54:59;;;;;;;;;44.80;42.00;;;;;;;;5256086;28;8820;-73
2022/01/02 11:01:55;;;;;;;;;7.00;7.00;;;;;;;;5291212;28;8705;-74
2022/01/02 11:04:30;;;;;;;;;67.20;55.00;;;;;;;;5238957;28;9496;-75
2022/01/02 11:07:02;;;;;;;;;55.00;48.00;;;;;;;;5240312;28;8815;-74
2022/01/02 11:13:56;;;;;;;;;56.20;48.40;;;;;;;;5290914;28;8704;-73
2022/01/02 11:16:28;;;;;;;;;74.75;59.50;;;;;;;;5273319;28;8792;-74
2022/01/02 11:18:59;;;;;;;;;67.00;51.60;;;;;;;;5238993;28;8807;-73
2022/01/02 11:21:34;;;;;;;;;61.00;52.40;;;;;;;;5256389;28;8911;-74
2022/01/02 11:24:28;;;;;;;;;39.00;37.80;;;;;;;;5258092;28;8918;-73
2022/01/02 11:27:07;;;;;;;;;80.25;63.75;;;;;;;;5239436;28;8808;-72
2022/01/02 11:29:38;;;;;;;;;75.25;58.50;;;;;;;;5255682;28;8768;-72
2022/01/02 11:32:36;;;;;;;;;64.33;44.33;;;;;;;;5255535;28;8889;-70
2022/01/02 11:35:23;;;;;;;;;46.60;38.60;;;;;;;;5267539;28;10195;-70
2022/01/02 11:37:56;;;;;;;;;68.40;49.00;;;;;;;;5256267;28;8792;-69
2022/01/02 11:40:42;;;;;;;;;37.80;37.80;;;;;;;;5255544;28;8976;-72
2022/01/02 11:43:31;;;;;;;;;49.60;45.60;;;;;;;;5255930;28;8757;-73
2022/01/02 11:46:21;;;;;;;;;35.20;32.60;;;;;;;;5255698;28;8788;-72
2022/01/02 11:49:04;;;;;;;;;48.20;43.60;;;;;;;;5290095;28;8783;-73
2022/01/02 11:51:47;;;;;;;;;38.20;37.60;;;;;;;;5257144;28;8773;-74
2022/01/02 11:54:27;;;;;;;;;50.80;46.40;;;;;;;;5276059;28;8785;-73
2022/01/02 11:57:00;;;;;;;;;36.00;34.80;;;;;;;;5240558;28;8789;-73
2022/01/02 11:59:43;;;;;;;;;69.60;56.20;;;;;;;;5238178;28;8780;-72
2022/01/02 12:02:24;;;;;;;;;65.20;49.20;;;;;;;;5238725;28;8776;-73
2022/01/02 12:05:14;;;;;;;;;83.25;60.75;;;;;;;;5255403;28;8808;-72
2022/01/02 12:07:53;;;;;;;;;75.75;61.50;;;;;;;;5255100;28;8764;-73
2022/01/02 12:10:35;;;;;;;;;104.67;79.00;;;;;;;;5254993;28;8757;-72
2022/01/02 12:13:09;;;;;;;;;51.20;45.20;;;;;;;;5254698;28;8777;-73
2022/01/02 12:15:40;;;;;;;;;55.80;48.20;;;;;;;;5237572;28;8791;-70
2022/01/02 12:18:41;;;;;;;;;55.75;45.75;;;;;;;;5254423;28;8781;-73
2022/01/02 12:21:12;;;;;;;;;59.25;50.25;;;;;;;;5238856;28;8787;-73
2022/01/02 12:23:44;;;;;;;;;80.50;63.75;;;;;;;;5254939;28;8882;-72
2022/01/02 12:26:18;;;;;;;;;74.25;61.00;;;;;;;;5254570;28;8800;-76
2022/01/02 12:29:01;;;;;;;;;65.75;51.00;;;;;;;;5254369;28;8804;-72
2022/01/02 12:31:38;;;;;;;;;74.75;58.50;;;;;;;;5237486;28;8866;-73
2022/01/02 12:34:10;;;;;;;;;50.80;47.60;;;;;;;;5237813;28;8801;-72
2022/01/02 12:41:04;;;;;;;;;68.40;56.40;;;;;;;;5289063;28;8705;-73
2022/01/02 12:43:35;;;;;;;;;65.40;50.00;;;;;;;;5254102;28;8776;-73
2022/01/02 12:46:06;;;;;;;;;78.67;62.33;;;;;;;;5270875;28;8826;-72
2022/01/02 12:48:36;;;;;;;;;86.67;65.33;;;;;;;;5270676;28;8781;-72
2022/01/02 12:51:08;;;;;;;;;108.33;83.33;;;;;;;;5270908;28;8860;-73
2022/01/02 12:53:39;;;;;;;;;65.00;55.00;;;;;;;;5254275;28;8808;-74
2022/01/02 12:56:10;;;;;;;;;71.67;58.67;;;;;;;;5253782;28;8839;-72
2022/01/02 12:58:41;;;;;;;;;70.80;58.20;;;;;;;;5253767;28;8776;-72
2022/01/02 13:01:12;;;;;;;;;55.75;49.75;;;;;;;;5271218;28;8799;-73
2022/01/02 13:03:46;;;;;;;;;57.50;51.25;;;;;;;;5254082;28;8808;-73
2022/01/02 13:06:20;;;;;;;;;37.80;37.80;;;;;;;;5254298;28;8819;-74
2022/01/02 13:08:55;;;;;;;;;42.20;41.60;;;;;;;;5253741;28;8777;-74
2022/01/02 13:11:34;;;;;;;;;45.60;39.40;;;;;;;;5253907;28;8807;-73
2022/01/02 13:14:05;;;;;;;;;75.80;58.60;;;;;;;;5270333;28;8785;-73
2022/01/02 13:16:35;;;;;;;;;48.25;46.00;;;;;;;;5253772;28;8783;-74
2022/01/02 13:19:06;;;;;;;;;81.67;63.33;;;;;;;;5270361;28;8800;-73
2022/01/02 13:21:37;;;;;;;;;114.00;81.00;;;;;;;;5270686;28;11469;-73
2022/01/02 13:24:24;;;;;;;;;78.33;54.33;;;;;;;;5270239;28;11484;-73
2022/01/02 13:26:55;;;;;;;;;134.67;107.67;;;;;;;;5237437;28;8772;-73
2022/01/02 13:29:27;;;;;;;;;95.25;73.50;;;;;;;;5236956;28;9750;-69
2022/01/02 13:32:10;;;;;;;;;56.80;48.80;;;;;;;;5288474;28;8854;-73
2022/01/02 13:34:42;;;;;;;;;65.50;56.75;;;;;;;;5236683;28;8772;-72
2022/01/02 13:37:13;;;;;;;;;50.25;46.50;;;;;;;;5236596;28;8776;-73
2022/01/02 13:39:46;;;;;;;;;92.67;70.00;;;;;;;;5236596;28;8795;-73
2022/01/02 13:42:17;;;;;;;;;93.25;73.25;;;;;;;;5253252;28;9495;-73
2022/01/02 13:44:50;;;;;;;;;89.75;68.75;;;;;;;;5270086;28;8828;-73
2022/01/02 13:47:32;;;;;;;;;67.20;57.80;;;;;;;;5271702;28;8768;-73
2022/01/02 13:50:04;;;;;;;;;37.20;36.20;;;;;;;;5241047;28;8768;-73
2022/01/02 13:52:53;;;;;;;;;37.40;33.80;;;;;;;;5258074;28;8764;-73
2022/01/02 13:55:30;;;;;;;;;34.00;33.20;;;;;;;;5240784;28;8930;-73
2022/01/02 13:58:02;;;;;;;;;55.80;48.20;;;;;;;;5241524;28;9543;-72
2022/01/02 14:00:33;;;;;;;;;52.00;46.80;;;;;;;;5240848;28;9498;-73
2022/01/02 14:03:04;;;;;;;;;44.80;42.40;;;;;;;;5257445;28;8768;-73
2022/01/02 14:05:43;;;;;;;;;39.60;36.80;;;;;;;;5291843;28;9491;-73
2022/01/02 14:08:15;;;;;;;;;41.80;37.40;;;;;;;;5274060;28;8768;-72
2022/01/02 14:10:47;;;;;;;;;47.20;45.40;;;;;;;;5274048;28;9645;-73
2022/01/02 14:13:18;;;;;;;;;49.20;45.60;;;;;;;;5257381;28;9459;-74
2022/01/02 14:16:07;;;;;;;;;23.60;21.00;;;;;;;;5260356;28;8871;-75
2022/01/02 14:18:38;;;;;;;;;21.40;19.00;;;;;;;;5257217;28;8919;-73
2022/01/02 14:21:09;;;;;;;;;30.20;28.60;;;;;;;;5257644;28;8839;-72
2022/01/02 14:23:40;;;;;;;;;46.60;41.60;;;;;;;;5292510;28;8776;-72
2022/01/02 14:26:31;;;;;;;;;45.00;39.20;;;;;;;;5276603;28;8909;-73
2022/01/02 14:29:22;;;;;;;;;27.40;25.20;;;;;;;;5260255;28;8857;-72
2022/01/02 14:31:53;;;;;;;;;26.00;24.00;;;;;;;;5274081;28;8833;-74
2022/01/02 14:34:43;;;;;;;;;22.80;22.80;;;;;;;;5273839;28;8785;-73
2022/01/02 14:37:16;;;;;;;;;33.80;33.60;;;;;;;;5240271;28;8997;-74
2022/01/02 14:39:47;;;;;;;;;9.80;9.80;;;;;;;;5256994;28;8764;-73
2022/01/02 14:42:19;;;;;;;;;11.20;11.20;;;;;;;;5273602;28;8784;-73
2022/01/02 14:44:50;;;;;;;;;36.40;33.00;;;;;;;;5257248;28;8867;-72
2022/01/02 14:47:21;;;;;;;;;32.00;29.00;;;;;;;;5291797;28;8780;-73
2022/01/02 14:49:52;;;;;;;;;32.00;31.60;;;;;;;;5290984;28;8849;-72
2022/01/02 14:52:23;;;;;;;;;18.40;18.40;;;;;;;;5256444;28;8796;-71
2022/01/02 14:54:54;;;;;;;;;4.00;4.00;;;;;;;;5256448;28;8816;-73
2022/01/02 14:57:26;;;;;;;;;3.80;3.80;;;;;;;;5273742;28;8761;-71
2022/01/02 14:59:58;;;;;;;;;5.60;5.60;;;;;;;;5239083;28;8788;-71
2022/01/02 15:02:29;;;;;;;;;6.40;6.40;;;;;;;;5256034;28;8893;-72
2022/01/02 15:05:18;;;;;;;;;4.80;4.80;;;;;;;;5259245;28;8796;-73
2022/01/02 15:07:49;;;;;;;;;16.80;16.40;;;;;;;;5272901;28;9463;-73
2022/01/02 15:10:20;;;;;;;;;9.20;9.20;;;;;;;;5272922;28;8872;-72
2022/01/02 15:12:51;;;;;;;;;8.20;8.20;;;;;;;;5256577;28;8783;-73
2022/01/02 15:15:23;;;;;;;;;13.00;13.00;;;;;;;;5256112;28;8781;-72
2022/01/02 15:17:54;;;;;;;;;17.00;17.00;;;;;;;;5255848;28;8803;-73
2022/01/02 15:20:44;;;;;;;;;14.60;12.80;;;;;;;;5258354;28;11484;-73
2022/01/02 15:23:15;;;;;;;;;9.00;9.00;;;;;;;;5239670;28;8777;-73
2022/01/02 15:25:46;;;;;;;;;5.60;5.60;;;;;;;;5290706;28;8816;-73
2022/01/02 15:28:17;;;;;;;;;10.20;10.20;;;;;;;;5255732;28;8903;-72
2022/01/02 15:30:48;;;;;;;;;9.60;9.60;;;;;;;;5272864;28;8791;-72
2022/01/02 15:33:19;;;;;;;;;17.20;17.20;;;;;;;;5272713;28;9480;-72
2022/01/02 15:35:50;;;;;;;;;26.50;26.00;;;;;;;;5255791;28;8780;-72
2022/01/02 15:38:21;;;;;;;;;17.75;15.50;;;;;;;;5256114;28;8803;-72
2022/01/02 15:40:52;;;;;;;;;13.20;13.20;;;;;;;;5291100;28;11434;-72
2022/01/02 15:43:23;;;;;;;;;14.00;13.75;;;;;;;;5272749;28;8780;-72
2022/01/02 15:45:54;;;;;;;;;20.00;18.00;;;;;;;;5255780;28;10581;-71
2022/01/02 15:48:25;;;;;;;;;23.00;20.60;;;;;;;;5272647;28;8887;-71
2022/01/02 15:50:56;;;;;;;;;21.50;20.00;;;;;;;;5290670;28;8793;-72
2022/01/02 15:53:29;;;;;;;;;7.80;6.40;;;;;;;;5272253;28;11421;-72
2022/01/02 15:56:00;;;;;;;;;12.00;12.00;;;;;;;;5254943;28;8808;-76
2022/01/02 15:58:32;;;;;;;;;13.60;13.60;;;;;;;;5238887;28;8781;-72
2022/01/02 16:05:26;;;;;;;;;8.60;8.60;;;;;;;;5289960;28;8784;-72
2022/01/02 16:07:57;;;;;;;;;14.75;14.75;;;;;;;;5271776;28;8786;-73
2022/01/02 16:10:28;;;;;;;;;10.20;10.00;;;;;;;;5271027;28;11417;-69
2022/01/02 16:12:59;;;;;;;;;9.00;9.00;;;;;;;;5272186;28;8776;-73
2022/01/02 16:15:30;;;;;;;;;8.20;8.20;;;;;;;;5290186;28;9479;-74
2022/01/02 16:18:01;;;;;;;;;0.25;0.25;;;;;;;;5254768;28;8773;-72
2022/01/02 16:24:55;;;;;;;;;4.00;4.00;;;;;;;;5289469;28;9443;-71
2022/01/02 16:27:27;;;;;;;;;3.50;3.25;;;;;;;;5254699;28;8780;-71
2022/01/02 16:29:59;;;;;;;;;0.00;0.00;;;;;;;;5289488;28;8791;-73
2022/01/02 16:32:29;;;;;;;;;12.40;11.60;;;;;;;;5290541;28;8799;-71
2022/01/02 16:35:00;;;;;;;;;10.00;10.00;;;;;;;;5272369;28;8780;-72
2022/01/02 16:37:37;;;;;;;;;7.00;6.60;;;;;;;;5290712;28;10633;-70
2022/01/02 16:40:26;;;;;;;;;15.00;12.00;;;;;;;;5257401;28;8795;-70
2022/01/02 16:42:57;;;;;;;;;10.40;10.40;;;;;;;;5271031;28;8784;-71
2022/01/02 16:45:29;;;;;;;;;5.80;5.80;;;;;;;;5238201;28;8824;-71
2022/01/02 16:48:01;;;;;;;;;6.40;5.60;;;;;;;;5271118;28;8796;-72
2022/01/02 16:50:32;;;;;;;;;6.00;6.00;;;;;;;;5288825;28;9503;-71
2022/01/02 16:53:03;;;;;;;;;0.00;0.00;;;;;;;;5271176;28;8815;-71
2022/01/02 16:55:34;;;;;;;;;3.40;3.40;;;;;;;;5289000;28;8912;-71
2022/01/02 16:58:06;;;;;;;;;6.20;6.00;;;;;;;;5288860;28;8773;-72
2022/01/02 17:00:38;;;;;;;;;7.00;7.00;;;;;;;;5254449;28;9495;-72
2022/01/02 17:03:10;;;;;;;;;6.00;6.00;;;;;;;;5270768;28;8768;-72